This is the latest recevied weather packets stored in our database for station/object NI4CE-10. If no packets are shown the sender has not sent any weather packets the latest 1 day(s).
| Time | Temp. | Humidity | Pressure | Rain* | Wind** | Luminosity | Snow |
|---|---|---|---|---|---|---|---|
| 1778024697 | 26.67° C | 100% | 1016.7 hPa | 0 mm | 1.79 m/s, 350° | - | - |
| 1778024445 | 26.67° C | 100% | 1016.7 hPa | 0 mm | 1.79 m/s, 350° | - | - |
| 1778024392 | 27.22° C | 100% | 1016.7 hPa | 0 mm | 0 m/s | - | - |
| 1778024145 | 27.22° C | 100% | 1016.7 hPa | 0 mm | 0 m/s | - | - |
| 1778024097 | 27.78° C | 100% | 1016.8 hPa | 0 mm | 0.45 m/s, 1° | - | - |
| 1778024009 | 27.78° C | 100% | 1016.8 hPa | 0 mm | 0.45 m/s, 1° | - | - |
| 1778023845 | 27.78° C | 100% | 1016.8 hPa | 0 mm | 0.45 m/s, 1° | - | - |
| 1778023826 | 27.78° C | 100% | 1016.7 hPa | 0 mm | 1.79 m/s, 7° | - | - |
| 1778023718 | 27.78° C | 100% | 1016.7 hPa | 0 mm | 1.79 m/s, 7° | - | - |
| 1778023545 | 27.78° C | 100% | 1016.7 hPa | 0 mm | 1.79 m/s, 7° | - | - |
| 1778023397 | 28.33° C | 100% | 1016.7 hPa | 0 mm | 2.68 m/s, 337° | - | - |
| 1778023245 | 28.33° C | 100% | 1016.7 hPa | 0 mm | 2.68 m/s, 337° | - | - |
| 1778023172 | 28.33° C | 100% | 1016.6 hPa | 0 mm | 3.58 m/s, 307° | - | - |
| 1778023138 | 28.33° C | 100% | 1016.6 hPa | 0 mm | 3.58 m/s, 307° | - | - |
| 1778022946 | 28.33° C | 100% | 1016.6 hPa | 0 mm | 3.58 m/s, 307° | - | - |
| 1778022680 | 28.33° C | 100% | 1016.6 hPa | 0 mm | 1.79 m/s, 14° | - | - |
| 1778022646 | 28.33° C | 100% | 1016.6 hPa | 0 mm | 1.79 m/s, 14° | - | - |
| 1778022496 | 28.33° C | 100% | 1016.6 hPa | 0 mm | 2.24 m/s, 347° | - | - |
| 1778022345 | 28.33° C | 100% | 1016.6 hPa | 0 mm | 2.24 m/s, 347° | - | - |
| 1778022148 | 28.33° C | 100% | 1016.6 hPa | 0 mm | 1.34 m/s, 284° | - | - |
| 1778022046 | 28.33° C | 100% | 1016.6 hPa | 0 mm | 1.34 m/s, 284° | - | - |
| 1778022035 | 28.33° C | 100% | 1016.6 hPa | 0 mm | 1.34 m/s, 289° | - | - |
| 1778021848 | 28.33° C | 100% | 1016.6 hPa | 0 mm | 1.34 m/s, 289° | - | - |
| 1778021746 | 28.33° C | 100% | 1016.6 hPa | 0 mm | 1.34 m/s, 289° | - | - |
| 1778021446 | 28.33° C | 100% | 1016.5 hPa | 0 mm | 1.34 m/s, 271° | - | - |
* Rain latest hour (hover to see other rain measurements)
** Current wind speed in m/s (hover to see current wind gust speed)